Time,TemperatureF,DewpointF,PressureIn,WindDirection,WindDirectionDegrees,WindSpeedMPH,WindSpeedGustMPH,Humidity,HourlyPrecipIn,Conditions,Clouds,dailyrainin,SoftwareType,DateUTC
2013-01-27 00:02:00,53.7,50.7,30.28,East,90,0.0,0.0,89,0.00,,,0.00,JAVA,2013-01-27 05:02:00,
2013-01-27 00:03:00,53.8,50.7,30.27,East,90,0.0,0.0,89,0.00,,,0.00,JAVA,2013-01-27 05:03:00,
2013-01-27 00:04:00,54.1,50.7,30.27,East,90,0.0,0.0,89,0.00,,,0.00,JAVA,2013-01-27 05:04:00,
2013-01-27 00:09:00,54.8,50.7,30.27,East,90,0.0,0.0,89,0.00,,,0.00,JAVA,2013-01-27 05:09:00,
2013-01-27 00:14:00,55.0,50.8,30.27,East,90,0.0,0.0,90,0.00,,,0.00,JAVA,2013-01-27 05:14:00,
2013-01-27 00:19:00,54.7,50.9,30.28,East,90,0.0,0.0,90,0.00,,,0.00,JAVA,2013-01-27 05:19:00,
2013-01-27 00:24:00,54.6,51.0,30.27,NNE,22,0.0,0.0,90,0.00,,,0.00,JAVA,2013-01-27 05:24:00,
2013-01-27 00:30:00,54.5,51.1,30.28,North,0,0.0,0.0,90,0.00,,,0.00,JAVA,2013-01-27 05:30:00,
2013-01-27 00:35:00,54.4,51.3,30.28,North,0,0.0,0.0,90,0.00,,,0.00,JAVA,2013-01-27 05:35:00,
2013-01-27 00:41:00,54.5,51.4,30.28,North,0,0.0,0.0,90,0.00,,,0.00,JAVA,2013-01-27 05:41:00,
2013-01-27 00:46:00,55.1,51.6,30.28,North,0,0.0,0.0,90,0.00,,,0.00,JAVA,2013-01-27 05:46:00,
2013-01-27 00:51:00,55.3,51.8,30.28,North,0,0.0,0.0,91,0.00,,,0.00,JAVA,2013-01-27 05:51:00,
2013-01-27 00:56:00,55.3,51.9,30.28,North,0,0.0,0.0,91,0.00,,,0.00,JAVA,2013-01-27 05:56:00,
2013-01-27 01:01:00,55.3,52.0,30.28,North,0,0.0,0.0,91,0.00,,,0.00,JAVA,2013-01-27 06:01:00,
2013-01-27 01:06:00,55.3,52.1,30.28,North,0,0.0,0.0,91,0.00,,,0.00,JAVA,2013-01-27 06:06:00,
2013-01-27 01:11:00,55.5,52.2,30.27,North,0,0.0,0.0,91,0.00,,,0.00,JAVA,2013-01-27 06:11:00,
2013-01-27 01:16:00,55.6,52.4,30.27,SE,135,0.0,0.0,91,0.00,,,0.00,JAVA,2013-01-27 06:16:00,
2013-01-27 01:21:00,55.5,52.6,30.27,SE,135,0.0,0.0,91,0.00,,,0.00,JAVA,2013-01-27 06:21:00,
2013-01-27 01:26:00,55.3,52.7,30.28,SE,135,0.0,0.0,92,0.00,,,0.00,JAVA,2013-01-27 06:26:00,
2013-01-27 01:32:00,55.6,52.8,30.27,SE,135,0.0,0.0,92,0.00,,,0.00,JAVA,2013-01-27 06:32:00,
2013-01-27 01:37:00,55.5,52.9,30.27,NE,45,0.0,0.0,92,0.00,,,0.00,JAVA,2013-01-27 06:37:00,
2013-01-27 01:42:00,55.4,53.0,30.27,NNW,337,0.0,0.0,92,0.00,,,0.00,JAVA,2013-01-27 06:42:00,
2013-01-27 01:47:00,55.3,53.0,30.27,North,0,0.0,0.0,92,0.00,,,0.00,JAVA,2013-01-27 06:47:00,
2013-01-27 01:53:00,55.4,53.1,30.27,North,0,0.0,0.0,92,0.00,,,0.00,JAVA,2013-01-27 06:53:00,
2013-01-27 01:58:00,55.5,53.1,30.27,North,0,0.0,0.0,92,0.00,,,0.00,JAVA,2013-01-27 06:58:00,
2013-01-27 02:04:00,55.5,53.1,30.27,North,0,0.0,0.0,92,0.00,,,0.00,JAVA,2013-01-27 07:04:00,
2013-01-27 02:09:00,55.4,53.1,30.27,North,0,0.0,0.0,92,0.00,,,0.00,JAVA,2013-01-27 07:09:00,
2013-01-27 02:15:00,55.3,53.1,30.27,North,0,0.0,0.0,92,0.00,,,0.00,JAVA,2013-01-27 07:15:00,
2013-01-27 02:20:00,55.1,53.1,30.27,North,0,0.0,0.0,92,0.00,,,0.00,JAVA,2013-01-27 07:20:00,
2013-01-27 02:26:00,55.0,53.0,30.27,North,0,0.0,0.0,92,0.00,,,0.00,JAVA,2013-01-27 07:26:00,
2013-01-27 02:31:00,55.1,53.0,30.27,NW,315,0.0,0.0,92,0.00,,,0.00,JAVA,2013-01-27 07:31:00,
2013-01-27 02:36:00,55.4,53.0,30.27,WNW,292,0.3,0.9,93,0.00,,,0.00,JAVA,2013-01-27 07:36:00,
2013-01-27 02:41:00,55.7,53.0,30.26,WNW,292,0.0,0.5,93,0.00,,,0.00,JAVA,2013-01-27 07:41:00,
2013-01-27 02:47:00,55.6,53.1,30.27,NW,315,0.0,0.0,93,0.00,,,0.00,JAVA,2013-01-27 07:47:00,
2013-01-27 02:52:00,55.5,53.1,30.27,West,270,0.0,0.0,93,0.00,,,0.00,JAVA,2013-01-27 07:52:00,
2013-01-27 02:57:00,55.3,53.2,30.27,NW,315,0.0,0.0,93,0.00,,,0.00,JAVA,2013-01-27 07:57:00,
2013-01-27 03:02:00,55.3,53.2,30.27,NW,315,0.0,0.0,93,0.00,,,0.00,JAVA,2013-01-27 08:02:00,
2013-01-27 03:07:00,55.5,53.3,30.27,SW,225,0.0,0.0,93,0.00,,,0.00,JAVA,2013-01-27 08:07:00,
2013-01-27 03:12:00,55.5,53.4,30.27,South,180,0.0,0.0,94,0.00,,,0.00,JAVA,2013-01-27 08:12:00,
2013-01-27 03:17:00,55.5,53.5,30.27,West,270,0.0,0.0,94,0.00,,,0.00,JAVA,2013-01-27 08:17:00,
2013-01-27 03:22:00,55.5,53.5,30.27,NW,315,0.0,0.0,94,0.00,,,0.00,JAVA,2013-01-27 08:22:00,
2013-01-27 03:28:00,55.5,53.5,30.27,NW,315,0.0,0.0,94,0.00,,,0.00,JAVA,2013-01-27 08:28:00,
2013-01-27 03:33:00,55.3,53.6,30.27,West,270,0.0,0.0,94,0.00,,,0.00,JAVA,2013-01-27 08:33:00,
2013-01-27 03:38:00,55.0,53.5,30.27,SSW,202,0.2,0.8,94,0.00,,,0.00,JAVA,2013-01-27 08:38:00,
2013-01-27 03:43:00,54.5,53.5,30.27,SW,225,0.2,0.8,94,0.00,,,0.00,JAVA,2013-01-27 08:43:00,
2013-01-27 03:48:00,54.6,53.4,30.27,SSW,202,0.1,1.1,94,0.00,,,0.00,JAVA,2013-01-27 08:48:00,
2013-01-27 03:53:00,54.5,53.3,30.27,West,270,0.0,0.0,94,0.00,,,0.00,JAVA,2013-01-27 08:53:00,
2013-01-27 03:58:00,54.4,53.2,30.27,NW,315,0.0,0.1,94,0.00,,,0.00,JAVA,2013-01-27 08:58:00,
2013-01-27 04:03:00,54.4,53.1,30.27,NNW,337,0.1,0.2,94,0.00,,,0.00,JAVA,2013-01-27 09:03:00,
2013-01-27 04:09:00,54.4,52.9,30.27,WNW,292,0.1,0.6,94,0.00,,,0.00,JAVA,2013-01-27 09:09:00,
2013-01-27 04:14:00,54.5,52.8,30.27,SW,225,0.7,1.3,95,0.00,,,0.00,JAVA,2013-01-27 09:14:00,
2013-01-27 04:19:00,54.5,52.8,30.27,North,0,0.3,0.5,95,0.00,,,0.00,JAVA,2013-01-27 09:19:00,
2013-01-27 04:24:00,54.5,52.8,30.26,West,270,0.1,0.7,95,0.00,,,0.00,JAVA,2013-01-27 09:24:00,
2013-01-27 04:29:00,54.6,52.8,30.27,WNW,292,0.4,1.2,95,0.00,,,0.00,JAVA,2013-01-27 09:29:00,
2013-01-27 04:34:00,54.7,52.8,30.27,West,270,0.2,0.9,95,0.00,,,0.00,JAVA,2013-01-27 09:34:00,
2013-01-27 04:40:00,54.7,52.9,30.27,North,0,0.2,0.9,95,0.00,,,0.00,JAVA,2013-01-27 09:40:00,
2013-01-27 04:45:00,54.8,53.0,30.27,NW,315,0.4,0.9,95,0.00,,,0.00,JAVA,2013-01-27 09:45:00,
2013-01-27 04:50:00,55.2,53.1,30.27,NW,315,0.5,1.1,95,0.00,,,0.00,JAVA,2013-01-27 09:50:00,
2013-01-27 04:55:00,55.3,53.3,30.27,NW,315,0.5,1.5,95,0.00,,,0.00,JAVA,2013-01-27 09:55:00,
2013-01-27 05:00:00,55.3,53.4,30.27,NW,315,0.2,0.7,95,0.00,,,0.00,JAVA,2013-01-27 10:00:00,
2013-01-27 05:05:00,55.3,53.5,30.28,NW,315,0.3,0.8,95,0.00,,,0.00,JAVA,2013-01-27 10:05:00,
2013-01-27 05:10:00,55.3,53.6,30.28,NW,315,0.1,0.4,95,0.00,,,0.00,JAVA,2013-01-27 10:10:00,
2013-01-27 05:16:00,55.3,53.7,30.27,NW,315,0.0,0.9,95,0.00,,,0.00,JAVA,2013-01-27 10:16:00,
2013-01-27 05:21:00,55.2,53.7,30.27,North,0,0.1,0.8,95,0.00,,,0.00,JAVA,2013-01-27 10:21:00,
2013-01-27 05:26:00,55.2,53.8,30.28,North,0,0.0,0.0,95,0.00,,,0.00,JAVA,2013-01-27 10:26:00,
2013-01-27 05:31:00,55.2,53.8,30.27,NW,315,0.0,0.0,95,0.00,,,0.00,JAVA,2013-01-27 10:31:00,
2013-01-27 05:36:00,55.3,53.8,30.28,NNW,337,0.2,1.2,95,0.00,,,0.00,JAVA,2013-01-27 10:36:00,
2013-01-27 05:41:00,55.4,53.8,30.28,NNW,337,0.5,1.2,95,0.00,,,0.00,JAVA,2013-01-27 10:41:00,
2013-01-27 05:46:00,55.7,53.9,30.28,NW,315,0.8,1.5,95,0.00,,,0.00,JAVA,2013-01-27 10:46:00,
2013-01-27 05:52:00,56.2,53.9,30.29,NNW,337,0.9,1.9,95,0.00,,,0.00,JAVA,2013-01-27 10:52:00,
2013-01-27 05:57:00,56.4,54.1,30.29,NNW,337,0.8,1.4,95,0.00,,,0.00,JAVA,2013-01-27 10:57:00,
2013-01-27 06:02:00,56.5,54.2,30.29,NNE,22,1.0,2.2,96,0.00,,,0.00,JAVA,2013-01-27 11:02:00,
2013-01-27 06:07:00,56.6,54.4,30.29,NNW,337,0.9,2.1,96,0.00,,,0.00,JAVA,2013-01-27 11:07:00,
2013-01-27 06:12:00,56.6,54.6,30.29,NE,45,0.9,1.4,96,0.00,,,0.00,JAVA,2013-01-27 11:12:00,
2013-01-27 06:17:00,56.6,54.8,30.29,NW,315,0.4,1.0,96,0.00,,,0.00,JAVA,2013-01-27 11:17:00,
2013-01-27 06:22:00,56.4,55.0,30.30,NNE,22,0.0,0.1,96,0.00,,,0.00,JAVA,2013-01-27 11:22:00,
2013-01-27 06:27:00,56.4,55.1,30.30,NW,315,0.6,0.9,96,0.00,,,0.00,JAVA,2013-01-27 11:27:00,
2013-01-27 06:32:00,56.3,55.2,30.31,North,0,0.2,0.6,96,0.00,,,0.00,JAVA,2013-01-27 11:32:00,
2013-01-27 06:37:00,56.3,55.2,30.30,North,0,0.4,1.4,96,0.00,,,0.00,JAVA,2013-01-27 11:37:00,
2013-01-27 06:42:00,56.3,55.2,30.30,North,0,0.7,1.3,96,0.00,,,0.00,JAVA,2013-01-27 11:42:00,
2013-01-27 06:47:00,56.3,55.2,30.30,North,0,0.6,1.3,96,0.00,,,0.00,JAVA,2013-01-27 11:47:00,
2013-01-27 06:53:00,56.3,55.2,30.30,NW,315,0.2,0.7,96,0.00,,,0.00,JAVA,2013-01-27 11:53:00,
2013-01-27 06:58:00,56.4,55.2,30.30,North,0,0.5,1.2,96,0.00,,,0.00,JAVA,2013-01-27 11:58:00,
2013-01-27 07:03:00,56.5,55.1,30.30,NW,315,0.4,0.6,96,0.00,,,0.00,JAVA,2013-01-27 12:03:00,
2013-01-27 07:08:00,56.6,55.2,30.30,NW,315,0.1,0.2,96,0.00,,,0.00,JAVA,2013-01-27 12:08:00,
2013-01-27 07:13:00,56.8,55.2,30.31,North,0,0.0,0.0,96,0.00,,,0.00,JAVA,2013-01-27 12:13:00,
2013-01-27 07:18:00,56.9,55.3,30.31,NW,315,0.0,0.2,96,0.00,,,0.00,JAVA,2013-01-27 12:18:00,
2013-01-27 07:23:00,56.8,55.3,30.31,NW,315,0.1,0.7,96,0.00,,,0.00,JAVA,2013-01-27 12:23:00,
2013-01-27 07:28:00,56.8,55.4,30.31,NNW,337,0.0,0.0,96,0.00,,,0.00,JAVA,2013-01-27 12:28:00,
2013-01-27 07:33:00,56.9,55.5,30.31,North,0,0.1,0.4,96,0.00,,,0.00,JAVA,2013-01-27 12:33:00,
2013-01-27 07:38:00,57.0,55.5,30.31,NW,315,0.2,0.9,96,0.00,,,0.00,JAVA,2013-01-27 12:38:00,
2013-01-27 07:43:00,57.3,55.6,30.31,NNE,22,0.1,0.4,96,0.00,,,0.00,JAVA,2013-01-27 12:43:00,
2013-01-27 07:48:00,57.7,55.8,30.31,NW,315,0.1,0.5,96,0.00,,,0.00,JAVA,2013-01-27 12:48:00,
2013-01-27 07:53:00,58.1,55.9,30.32,NW,315,0.1,0.6,96,0.00,,,0.00,JAVA,2013-01-27 12:53:00,
2013-01-27 07:59:00,58.7,56.1,30.32,NW,315,0.0,0.1,97,0.00,,,0.00,JAVA,2013-01-27 12:59:00,
2013-01-27 08:04:00,59.2,56.4,30.32,NW,315,0.0,0.2,97,0.00,,,0.00,JAVA,2013-01-27 13:04:00,
2013-01-27 08:09:00,59.8,56.7,30.32,North,0,0.1,0.7,97,0.00,,,0.00,JAVA,2013-01-27 13:09:00,
2013-01-27 08:14:00,60.5,57.1,30.32,NNW,337,0.1,0.6,97,0.00,,,0.00,JAVA,2013-01-27 13:14:00,
2013-01-27 08:19:00,61.3,57.6,30.32,North,0,0.0,0.0,97,0.00,,,0.00,JAVA,2013-01-27 13:19:00,
2013-01-27 08:24:00,62.0,58.2,30.32,NW,315,0.1,0.5,97,0.00,,,0.00,JAVA,2013-01-27 13:24:00,
2013-01-27 08:29:00,62.5,58.8,30.32,North,0,0.3,0.8,97,0.00,,,0.00,JAVA,2013-01-27 13:29:00,
2013-01-27 08:34:00,63.2,59.4,30.32,North,0,0.1,0.5,98,0.00,,,0.00,JAVA,2013-01-27 13:34:00,
2013-01-27 08:39:00,63.4,60.1,30.33,NNW,337,0.4,1.4,98,0.00,,,0.00,JAVA,2013-01-27 13:39:00,
2013-01-27 08:44:00,63.7,60.7,30.33,ESE,112,0.8,1.3,98,0.00,,,0.00,JAVA,2013-01-27 13:44:00,
2013-01-27 08:50:00,64.3,61.3,30.33,SW,225,0.0,0.6,98,0.00,,,0.00,JAVA,2013-01-27 13:50:00,
2013-01-27 08:55:00,64.9,62.0,30.33,NW,315,0.5,1.9,98,0.00,,,0.00,JAVA,2013-01-27 13:55:00,
2013-01-27 09:00:00,64.4,62.5,30.34,North,0,1.8,4.0,98,0.00,,,0.00,JAVA,2013-01-27 14:00:00,
2013-01-27 09:06:00,64.3,62.9,30.33,NW,315,2.2,3.3,98,0.00,,,0.00,JAVA,2013-01-27 14:06:00,
2013-01-27 09:11:00,64.4,63.2,30.34,North,0,2.3,3.4,97,0.00,,,0.00,JAVA,2013-01-27 14:11:00,
2013-01-27 09:16:00,64.5,63.4,30.34,NNW,337,2.4,4.6,97,0.00,,,0.00,JAVA,2013-01-27 14:16:00,
2013-01-27 09:21:00,64.9,63.5,30.34,North,0,1.9,3.3,97,0.00,,,0.00,JAVA,2013-01-27 14:21:00,
2013-01-27 09:26:00,65.1,63.7,30.34,North,0,2.1,3.9,96,0.00,,,0.00,JAVA,2013-01-27 14:26:00,
2013-01-27 09:31:00,65.4,63.8,30.34,North,0,2.7,3.8,95,0.00,,,0.00,JAVA,2013-01-27 14:31:00,
2013-01-27 09:36:00,65.9,63.8,30.35,NNE,22,1.7,3.5,94,0.00,,,0.00,JAVA,2013-01-27 14:36:00,
2013-01-27 09:42:00,66.2,63.8,30.35,NE,45,2.4,3.4,93,0.00,,,0.00,JAVA,2013-01-27 14:42:00,
2013-01-27 09:47:00,66.4,63.8,30.35,North,0,2.0,3.4,92,0.00,,,0.00,JAVA,2013-01-27 14:47:00,
2013-01-27 09:52:00,66.9,63.9,30.36,North,0,2.3,3.1,90,0.00,,,0.00,JAVA,2013-01-27 14:52:00,
2013-01-27 09:57:00,67.0,63.9,30.36,WNW,292,2.5,3.6,89,0.00,,,0.00,JAVA,2013-01-27 14:57:00,
2013-01-27 10:03:00,67.3,63.9,30.35,North,0,2.5,4.5,88,0.00,,,0.00,JAVA,2013-01-27 15:03:00,
2013-01-27 10:08:00,67.6,63.8,30.35,North,0,2.7,4.2,86,0.00,,,0.00,JAVA,2013-01-27 15:08:00,
2013-01-27 10:13:00,67.9,63.8,30.36,North,0,2.0,3.2,85,0.00,,,0.00,JAVA,2013-01-27 15:13:00,
2013-01-27 10:18:00,68.1,63.7,30.35,NW,315,2.4,3.4,84,0.00,,,0.00,JAVA,2013-01-27 15:18:00,
2013-01-27 10:23:00,68.4,63.6,30.35,NW,315,2.4,4.0,83,0.00,,,0.00,JAVA,2013-01-27 15:23:00,
2013-01-27 10:28:00,68.7,63.5,30.36,NE,45,2.0,2.9,83,0.00,,,0.00,JAVA,2013-01-27 15:28:00,
2013-01-27 10:34:00,69.0,63.4,30.35,NW,315,2.2,2.7,82,0.00,,,0.00,JAVA,2013-01-27 15:34:00,
2013-01-27 10:39:00,69.1,63.3,30.35,NE,45,2.0,4.2,81,0.00,,,0.00,JAVA,2013-01-27 15:39:00,
2013-01-27 10:44:00,69.5,63.3,30.36,NNE,22,2.3,3.4,80,0.00,,,0.00,JAVA,2013-01-27 15:44:00,
2013-01-27 10:49:00,69.7,63.3,30.36,NE,45,2.1,3.4,80,0.00,,,0.00,JAVA,2013-01-27 15:49:00,
2013-01-27 10:54:00,69.8,63.2,30.36,NNW,337,2.8,4.3,79,0.00,,,0.00,JAVA,2013-01-27 15:54:00,
2013-01-27 10:59:00,69.8,63.2,30.36,NW,315,2.9,4.3,78,0.00,,,0.00,JAVA,2013-01-27 15:59:00,
2013-01-27 11:04:00,69.6,63.1,30.36,NW,315,3.2,4.1,78,0.00,,,0.00,JAVA,2013-01-27 16:04:00,
2013-01-27 11:09:00,69.8,63.0,30.36,North,0,2.0,3.7,77,0.00,,,0.00,JAVA,2013-01-27 16:09:00,
2013-01-27 11:14:00,70.0,62.9,30.36,North,0,2.8,4.0,77,0.00,,,0.00,JAVA,2013-01-27 16:14:00,
2013-01-27 11:19:00,69.8,62.8,30.36,NNW,337,3.5,5.5,77,0.00,,,0.00,JAVA,2013-01-27 16:19:00,
2013-01-27 11:24:00,69.9,62.7,30.36,North,0,2.9,4.4,76,0.00,,,0.00,JAVA,2013-01-27 16:24:00,
2013-01-27 11:30:00,70.0,62.6,30.35,North,0,3.6,5.2,76,0.00,,,0.00,JAVA,2013-01-27 16:30:00,
2013-01-27 11:35:00,70.0,62.5,30.35,North,0,3.7,5.9,76,0.00,,,0.00,JAVA,2013-01-27 16:35:00,
2013-01-27 11:50:00,70.6,62.4,30.35,North,0,3.3,4.9,75,0.00,,,0.00,JAVA,2013-01-27 16:50:00,
2013-01-27 11:56:00,70.8,62.4,30.35,NNW,337,2.8,4.1,75,0.00,,,0.00,JAVA,2013-01-27 16:56:00,
2013-01-27 12:03:00,70.8,62.5,30.34,North,0,3.2,4.8,75,0.00,,,0.00,JAVA,2013-01-27 17:03:00,
2013-01-27 12:11:00,70.9,62.5,30.34,North,0,2.7,3.9,74,0.00,,,0.00,JAVA,2013-01-27 17:11:00,
2013-01-27 12:16:00,70.9,62.6,30.34,WNW,292,3.1,4.3,74,0.00,,,0.00,JAVA,2013-01-27 17:16:00,
2013-01-27 12:21:00,70.7,62.6,30.34,NNW,337,3.2,4.6,74,0.00,,,0.00,JAVA,2013-01-27 17:21:00,
2013-01-27 12:26:00,70.8,62.5,30.33,North,0,2.9,4.5,74,0.00,,,0.00,JAVA,2013-01-27 17:26:00,
2013-01-27 12:31:00,70.9,62.4,30.33,NNW,337,3.2,4.7,74,0.00,,,0.00,JAVA,2013-01-27 17:31:00,
2013-01-27 12:36:00,70.8,62.4,30.33,North,0,3.2,4.4,74,0.00,,,0.00,JAVA,2013-01-27 17:36:00,
2013-01-27 12:42:00,70.9,62.4,30.32,NE,45,3.1,5.1,74,0.00,,,0.00,JAVA,2013-01-27 17:42:00,
2013-01-27 12:47:00,71.2,62.4,30.32,NNW,337,3.2,4.7,75,0.00,,,0.00,JAVA,2013-01-27 17:47:00,
2013-01-27 12:52:00,71.3,62.4,30.32,NNE,22,2.8,5.3,75,0.00,,,0.00,JAVA,2013-01-27 17:52:00,
2013-01-27 12:57:00,71.7,62.5,30.32,NNE,22,2.1,3.9,75,0.00,,,0.00,JAVA,2013-01-27 17:57:00,
2013-01-27 13:05:00,72.4,62.8,30.31,ESE,112,1.9,3.8,75,0.00,,,0.00,JAVA,2013-01-27 18:05:00,
2013-01-27 13:10:00,72.7,63.1,30.31,NE,45,2.4,4.3,74,0.00,,,0.00,JAVA,2013-01-27 18:10:00,
2013-01-27 13:15:00,72.6,63.3,30.31,ENE,67,2.4,4.0,74,0.00,,,0.00,JAVA,2013-01-27 18:15:00,
2013-01-27 13:20:00,72.5,63.4,30.31,North,0,2.6,4.1,73,0.00,,,0.00,JAVA,2013-01-27 18:20:00,
2013-01-27 13:25:00,72.5,63.6,30.31,North,0,2.8,4.0,73,0.00,,,0.00,JAVA,2013-01-27 18:25:00,
2013-01-27 13:30:00,72.4,63.6,30.31,NNW,337,3.1,4.1,72,0.00,,,0.00,JAVA,2013-01-27 18:30:00,
2013-01-27 13:40:00,72.7,63.6,30.30,WNW,292,1.6,2.5,71,0.00,,,0.00,JAVA,2013-01-27 18:40:00,
2013-01-27 13:45:00,72.9,63.4,30.31,North,0,2.7,4.1,70,0.00,,,0.00,JAVA,2013-01-27 18:45:00,
2013-01-27 13:50:00,72.9,63.3,30.30,North,0,2.5,3.8,70,0.00,,,0.00,JAVA,2013-01-27 18:50:00,
2013-01-27 13:55:00,72.9,63.1,30.30,NW,315,3.1,4.4,70,0.00,,,0.00,JAVA,2013-01-27 18:55:00,
2013-01-27 14:00:00,72.9,63.0,30.29,NW,315,2.8,4.1,69,0.00,,,0.00,JAVA,2013-01-27 19:00:00,
2013-01-27 14:05:00,72.9,62.9,30.30,NNE,22,3.2,4.4,69,0.00,,,0.00,JAVA,2013-01-27 19:05:00,
2013-01-27 14:11:00,72.6,62.7,30.29,NNW,337,3.6,5.3,69,0.00,,,0.00,JAVA,2013-01-27 19:11:00,
2013-01-27 14:16:00,72.5,62.5,30.29,NNE,22,2.3,3.8,68,0.00,,,0.00,JAVA,2013-01-27 19:16:00,
2013-01-27 14:21:00,72.7,62.4,30.29,SE,135,2.4,3.7,68,0.00,,,0.00,JAVA,2013-01-27 19:21:00,
2013-01-27 14:26:00,72.9,62.3,30.29,NW,315,2.8,4.7,67,0.00,,,0.00,JAVA,2013-01-27 19:26:00,
2013-01-27 14:32:00,72.9,62.1,30.29,North,0,2.5,4.3,67,0.00,,,0.00,JAVA,2013-01-27 19:32:00,
2013-01-27 14:37:00,73.1,62.0,30.29,North,0,2.4,3.8,67,0.00,,,0.00,JAVA,2013-01-27 19:37:00,
2013-01-27 14:42:00,73.1,61.8,30.29,NNW,337,3.2,5.4,66,0.00,,,0.00,JAVA,2013-01-27 19:42:00,
2013-01-27 14:47:00,73.4,61.7,30.28,North,0,2.0,2.8,66,0.00,,,0.00,JAVA,2013-01-27 19:47:00,
2013-01-27 14:53:00,73.1,61.6,30.28,East,90,2.8,4.2,66,0.00,,,0.00,JAVA,2013-01-27 19:53:00,
2013-01-27 14:58:00,73.1,61.6,30.29,NE,45,2.8,4.2,66,0.00,,,0.00,JAVA,2013-01-27 19:58:00,
2013-01-27 15:03:00,73.2,61.5,30.28,NNE,22,2.3,3.3,66,0.00,,,0.00,JAVA,2013-01-27 20:03:00,
2013-01-27 15:08:00,73.1,61.4,30.28,West,270,3.4,4.5,65,0.00,,,0.00,JAVA,2013-01-27 20:08:00,
2013-01-27 15:13:00,73.2,61.4,30.28,NNE,22,2.7,4.0,66,0.00,,,0.00,JAVA,2013-01-27 20:13:00,
2013-01-27 15:18:00,73.1,61.3,30.28,NE,45,2.2,4.7,65,0.00,,,0.00,JAVA,2013-01-27 20:18:00,
2013-01-27 15:23:00,72.9,61.2,30.28,North,0,3.6,4.9,65,0.00,,,0.00,JAVA,2013-01-27 20:23:00,
2013-01-27 15:28:00,72.5,61.1,30.29,North,0,3.4,5.6,65,0.00,,,0.00,JAVA,2013-01-27 20:28:00,
2013-01-27 15:34:00,72.5,61.0,30.28,NNW,337,3.1,5.3,66,0.00,,,0.00,JAVA,2013-01-27 20:34:00,
2013-01-27 15:40:00,72.8,61.0,30.28,NNW,337,2.5,3.8,66,0.00,,,0.00,JAVA,2013-01-27 20:40:00,
2013-01-27 15:45:00,72.7,60.9,30.28,North,0,3.6,5.5,66,0.00,,,0.00,JAVA,2013-01-27 20:45:00,
2013-01-27 15:50:00,72.6,60.9,30.28,NW,315,2.8,3.9,67,0.00,,,0.00,JAVA,2013-01-27 20:50:00,
2013-01-27 15:55:00,72.7,61.0,30.28,NNE,22,2.1,3.7,67,0.00,,,0.00,JAVA,2013-01-27 20:55:00,
2013-01-27 16:00:00,72.6,61.0,30.29,NNW,337,2.6,3.9,68,0.00,,,0.00,JAVA,2013-01-27 21:00:00,
2013-01-27 16:05:00,72.4,61.1,30.29,NE,45,3.0,4.3,68,0.00,,,0.00,JAVA,2013-01-27 21:05:00,
2013-01-27 16:11:00,72.5,61.2,30.29,North,0,2.0,3.2,68,0.00,,,0.00,JAVA,2013-01-27 21:11:00,
2013-01-27 16:16:00,72.4,61.3,30.28,WNW,292,2.5,4.9,68,0.00,,,0.00,JAVA,2013-01-27 21:16:00,
2013-01-27 16:21:00,72.1,61.4,30.29,NNW,337,3.1,4.8,69,0.00,,,0.00,JAVA,2013-01-27 21:21:00,
2013-01-27 16:26:00,71.8,61.5,30.29,NNW,337,2.9,4.0,69,0.00,,,0.00,JAVA,2013-01-27 21:26:00,
2013-01-27 16:31:00,71.7,61.5,30.29,NNW,337,3.1,5.8,69,0.00,,,0.00,JAVA,2013-01-27 21:31:00,
2013-01-27 16:36:00,71.7,61.5,30.29,NNW,337,2.3,4.1,70,0.00,,,0.00,JAVA,2013-01-27 21:36:00,
2013-01-27 16:41:00,71.8,61.5,30.29,NE,45,2.4,4.2,70,0.00,,,0.00,JAVA,2013-01-27 21:41:00,
2013-01-27 16:46:00,71.5,61.6,30.29,North,0,2.7,4.3,71,0.00,,,0.00,JAVA,2013-01-27 21:46:00,
2013-01-27 16:51:00,71.3,61.6,30.29,North,0,2.6,4.0,71,0.00,,,0.00,JAVA,2013-01-27 21:51:00,
2013-01-27 16:56:00,71.3,61.6,30.30,NNW,337,1.8,2.6,72,0.00,,,0.00,JAVA,2013-01-27 21:56:00,
2013-01-27 17:01:00,71.2,61.6,30.30,NE,45,2.3,3.3,72,0.00,,,0.00,JAVA,2013-01-27 22:01:00,
2013-01-27 17:06:00,70.9,61.7,30.30,NNW,337,2.2,3.3,73,0.00,,,0.00,JAVA,2013-01-27 22:06:00,
2013-01-27 17:12:00,70.7,61.8,30.30,NNW,337,1.6,2.9,74,0.00,,,0.00,JAVA,2013-01-27 22:12:00,
2013-01-27 17:17:00,70.6,61.9,30.30,North,0,1.6,2.5,74,0.00,,,0.00,JAVA,2013-01-27 22:17:00,
2013-01-27 17:22:00,70.4,61.9,30.30,North,0,1.9,2.8,75,0.00,,,0.00,JAVA,2013-01-27 22:22:00,
2013-01-27 17:27:00,70.3,62.0,30.30,North,0,1.6,2.4,75,0.00,,,0.00,JAVA,2013-01-27 22:27:00,
2013-01-27 17:32:00,70.0,62.0,30.30,North,0,1.6,2.4,76,0.00,,,0.00,JAVA,2013-01-27 22:32:00,
2013-01-27 17:37:00,69.8,62.1,30.30,NW,315,1.0,1.8,77,0.00,,,0.00,JAVA,2013-01-27 22:37:00,
2013-01-27 17:42:00,69.6,62.2,30.30,North,0,1.5,2.3,78,0.00,,,0.00,JAVA,2013-01-27 22:42:00,
2013-01-27 17:47:00,69.4,62.2,30.30,NW,315,1.3,3.0,78,0.00,,,0.00,JAVA,2013-01-27 22:47:00,
2013-01-27 17:52:00,69.1,62.3,30.30,North,0,1.0,2.4,79,0.00,,,0.00,JAVA,2013-01-27 22:52:00,
2013-01-27 17:57:00,68.8,62.3,30.30,NW,315,0.2,0.4,79,0.00,,,0.00,JAVA,2013-01-27 22:57:00,
2013-01-27 18:02:00,68.6,62.4,30.30,NW,315,0.1,0.8,80,0.00,,,0.00,JAVA,2013-01-27 23:02:00,
2013-01-27 18:07:00,68.2,62.4,30.30,WNW,292,0.0,0.4,81,0.00,,,0.00,JAVA,2013-01-27 23:07:00,
2013-01-27 18:12:00,67.9,62.4,30.31,NW,315,0.0,0.0,81,0.00,,,0.00,JAVA,2013-01-27 23:12:00,
2013-01-27 18:17:00,67.7,62.3,30.31,NE,45,0.0,0.0,81,0.00,,,0.00,JAVA,2013-01-27 23:17:00,
2013-01-27 18:22:00,67.4,62.3,30.32,NNE,22,0.0,0.0,82,0.00,,,0.00,JAVA,2013-01-27 23:22:00,
2013-01-27 18:27:00,67.4,62.2,30.31,North,0,0.0,0.1,82,0.00,,,0.00,JAVA,2013-01-27 23:27:00,
2013-01-27 18:32:00,67.2,62.1,30.32,NW,315,0.0,0.0,82,0.00,,,0.00,JAVA,2013-01-27 23:32:00,
2013-01-27 18:37:00,67.1,62.0,30.31,NW,315,0.0,0.0,82,0.00,,,0.00,JAVA,2013-01-27 23:37:00,
2013-01-27 18:42:00,67.0,61.9,30.32,NNE,22,0.0,0.0,83,0.00,,,0.00,JAVA,2013-01-27 23:42:00,
2013-01-27 18:47:00,66.8,61.8,30.31,NW,315,0.0,0.0,83,0.00,,,0.00,JAVA,2013-01-27 23:47:00,
2013-01-27 18:52:00,66.7,61.8,30.32,NE,45,0.0,0.0,83,0.00,,,0.00,JAVA,2013-01-27 23:52:00,
2013-01-27 18:58:00,66.3,61.7,30.32,NW,315,0.0,0.0,83,0.00,,,0.00,JAVA,2013-01-27 23:58:00,
2013-01-27 19:03:00,66.0,61.6,30.32,East,90,0.0,0.0,84,0.00,,,0.00,JAVA,2013-01-28 00:03:00,
2013-01-27 19:08:00,65.5,61.5,30.32,East,90,0.0,0.0,84,0.00,,,0.00,JAVA,2013-01-28 00:08:00,
2013-01-27 19:13:00,65.2,61.3,30.32,North,0,0.0,0.0,84,0.00,,,0.00,JAVA,2013-01-28 00:13:00,
2013-01-27 19:18:00,65.1,61.2,30.33,NE,45,0.0,0.0,84,0.00,,,0.00,JAVA,2013-01-28 00:18:00,
2013-01-27 19:23:00,65.1,61.0,30.33,South,180,0.0,0.0,84,0.00,,,0.00,JAVA,2013-01-28 00:23:00,
2013-01-27 19:28:00,64.7,60.9,30.32,ESE,112,0.1,0.9,85,0.00,,,0.00,JAVA,2013-01-28 00:28:00,
2013-01-27 19:33:00,64.5,60.7,30.32,East,90,0.0,0.0,85,0.00,,,0.00,JAVA,2013-01-28 00:33:00,
2013-01-27 19:38:00,64.3,60.5,30.33,East,90,0.0,0.0,85,0.00,,,0.00,JAVA,2013-01-28 00:38:00,
2013-01-27 19:43:00,64.1,60.3,30.32,NNE,22,0.0,0.0,85,0.00,,,0.00,JAVA,2013-01-28 00:43:00,
2013-01-27 19:48:00,64.4,60.1,30.32,East,90,0.2,0.8,85,0.00,,,0.00,JAVA,2013-01-28 00:48:00,
2013-01-27 19:53:00,64.6,60.1,30.33,ESE,112,0.2,0.6,86,0.00,,,0.00,JAVA,2013-01-28 00:53:00,
2013-01-27 19:58:00,65.1,60.1,30.32,East,90,1.2,2.0,86,0.00,,,0.00,JAVA,2013-01-28 00:58:00,
2013-01-27 20:03:00,65.6,60.2,30.32,ESE,112,1.2,2.1,87,0.00,,,0.00,JAVA,2013-01-28 01:03:00,
2013-01-27 20:09:00,66.3,60.4,30.33,East,90,1.3,2.1,87,0.00,,,0.00,JAVA,2013-01-28 01:09:00,
2013-01-27 20:14:00,66.8,60.8,30.32,SE,135,1.8,2.7,88,0.00,,,0.00,JAVA,2013-01-28 01:14:00,
2013-01-27 20:19:00,67.2,61.2,30.33,East,90,1.9,4.0,89,0.00,,,0.00,JAVA,2013-01-28 01:19:00,
2013-01-27 20:24:00,67.7,61.7,30.32,ESE,112,2.0,3.7,89,0.00,,,0.00,JAVA,2013-01-28 01:24:00,
2013-01-27 20:29:00,68.0,62.3,30.33,East,90,2.3,3.4,90,0.00,,,0.00,JAVA,2013-01-28 01:29:00,
2013-01-27 20:34:00,68.1,63.0,30.33,East,90,2.1,3.3,90,0.00,,,0.00,JAVA,2013-01-28 01:34:00,
2013-01-27 20:39:00,68.3,63.5,30.33,ESE,112,1.7,3.3,90,0.00,,,0.00,JAVA,2013-01-28 01:39:00,
2013-01-27 20:44:00,68.3,64.0,30.32,SE,135,1.3,2.1,90,0.00,,,0.00,JAVA,2013-01-28 01:44:00,
2013-01-27 20:50:00,68.4,64.5,30.33,ESE,112,1.4,2.6,90,0.00,,,0.00,JAVA,2013-01-28 01:50:00,
2013-01-27 20:55:00,68.4,64.8,30.33,SE,135,2.3,3.7,89,0.00,,,0.00,JAVA,2013-01-28 01:55:00,
2013-01-27 21:00:00,68.9,65.1,30.33,East,90,3.4,5.5,89,0.00,,,0.00,JAVA,2013-01-28 02:00:00,
2013-01-27 21:05:00,69.4,65.3,30.33,ESE,112,3.5,5.0,89,0.00,,,0.00,JAVA,2013-01-28 02:05:00,
2013-01-27 21:10:00,69.8,65.4,30.33,East,90,3.3,5.7,88,0.00,,,0.00,JAVA,2013-01-28 02:10:00,
2013-01-27 21:15:00,69.9,65.6,30.34,SE,135,4.1,5.7,88,0.00,,,0.00,JAVA,2013-01-28 02:15:00,
2013-01-27 21:20:00,70.1,65.7,30.34,SE,135,4.0,6.5,87,0.00,,,0.00,JAVA,2013-01-28 02:20:00,
2013-01-27 21:25:00,70.4,65.8,30.33,SE,135,4.0,6.3,86,0.00,,,0.00,JAVA,2013-01-28 02:25:00,
2013-01-27 21:31:00,70.5,65.9,30.34,ENE,67,4.4,6.0,86,0.00,,,0.00,JAVA,2013-01-28 02:31:00,
2013-01-27 21:36:00,70.5,65.9,30.33,SE,135,3.6,5.3,85,0.00,,,0.00,JAVA,2013-01-28 02:36:00,
2013-01-27 21:41:00,70.5,66.0,30.34,SSE,157,3.9,5.5,84,0.00,,,0.00,JAVA,2013-01-28 02:41:00,
2013-01-27 21:46:00,70.5,66.0,30.33,SE,135,3.8,5.6,84,0.00,,,0.00,JAVA,2013-01-28 02:46:00,
2013-01-27 21:51:00,70.5,65.9,30.34,SSE,157,4.0,5.0,83,0.00,,,0.00,JAVA,2013-01-28 02:51:00,
2013-01-27 21:56:00,70.5,65.7,30.34,East,90,4.0,6.5,82,0.00,,,0.00,JAVA,2013-01-28 02:56:00,
2013-01-27 22:01:00,70.5,65.6,30.34,East,90,4.0,6.0,82,0.00,,,0.00,JAVA,2013-01-28 03:01:00,
2013-01-27 22:06:00,70.4,65.4,30.34,ENE,67,4.7,6.7,81,0.00,,,0.00,JAVA,2013-01-28 03:06:00,
2013-01-27 22:11:00,70.6,65.3,30.34,SE,135,4.7,6.3,81,0.00,,,0.00,JAVA,2013-01-28 03:11:00,
2013-01-27 22:17:00,70.7,65.1,30.34,East,90,5.1,7.8,81,0.00,,,0.00,JAVA,2013-01-28 03:17:00,
2013-01-27 22:22:00,70.7,65.0,30.34,East,90,4.7,7.2,80,0.00,,,0.00,JAVA,2013-01-28 03:22:00,
2013-01-27 22:27:00,70.7,64.9,30.34,ESE,112,4.9,6.5,80,0.00,,,0.00,JAVA,2013-01-28 03:27:00,
2013-01-27 22:32:00,70.6,64.7,30.34,SE,135,4.9,6.8,80,0.00,,,0.00,JAVA,2013-01-28 03:32:00,
2013-01-27 22:37:00,70.7,64.7,30.34,ESE,112,4.4,5.6,80,0.00,,,0.00,JAVA,2013-01-28 03:37:00,
2013-01-27 22:42:00,70.6,64.6,30.34,SE,135,4.4,6.0,80,0.00,,,0.00,JAVA,2013-01-28 03:42:00,
2013-01-27 22:47:00,70.6,64.5,30.34,SE,135,4.1,6.5,79,0.00,,,0.00,JAVA,2013-01-28 03:47:00,
2013-01-27 22:52:00,70.6,64.4,30.34,East,90,4.0,5.4,79,0.00,,,0.00,JAVA,2013-01-28 03:52:00,
2013-01-27 22:57:00,70.6,64.4,30.34,SE,135,4.4,7.0,79,0.00,,,0.00,JAVA,2013-01-28 03:57:00,
2013-01-27 23:02:00,70.5,64.3,30.34,East,90,4.7,7.0,79,0.00,,,0.00,JAVA,2013-01-28 04:02:00,
2013-01-27 23:07:00,70.5,64.2,30.34,East,90,3.8,5.7,79,0.00,,,0.00,JAVA,2013-01-28 04:07:00,
2013-01-27 23:12:00,70.4,64.1,30.34,ENE,67,4.1,4.8,79,0.00,,,0.00,JAVA,2013-01-28 04:12:00,
2013-01-27 23:17:00,70.4,64.0,30.34,SE,135,4.1,6.1,79,0.00,,,0.00,JAVA,2013-01-28 04:17:00,
2013-01-27 23:22:00,70.3,64.0,30.33,ESE,112,4.4,6.8,79,0.00,,,0.00,JAVA,2013-01-28 04:22:00,
2013-01-27 23:27:00,70.1,63.9,30.33,East,90,4.4,6.3,79,0.00,,,0.00,JAVA,2013-01-28 04:27:00,
2013-01-27 23:33:00,70.3,63.8,30.32,SE,135,4.7,6.4,79,0.00,,,0.00,JAVA,2013-01-28 04:33:00,
2013-01-27 23:38:00,70.4,63.8,30.32,SE,135,4.4,6.2,79,0.00,,,0.00,JAVA,2013-01-28 04:38:00,
2013-01-27 23:43:00,70.4,63.8,30.32,ENE,67,4.5,5.9,79,0.00,,,0.00,JAVA,2013-01-28 04:43:00,
2013-01-27 23:48:00,70.4,63.7,30.32,ESE,112,4.5,5.5,79,0.00,,,0.00,JAVA,2013-01-28 04:48:00,
2013-01-27 23:53:00,70.4,63.8,30.32,East,90,4.1,6.0,79,0.00,,,0.00,JAVA,2013-01-28 04:53:00,
2013-01-27 23:58:00,70.3,63.8,30.32,East,90,4.6,6.5,80,0.00,,,0.00,JAVA,2013-01-28 04:58:00,